sensor_id;sensor_type;location;lat;lon;timestamp;temperature;humidity
24162;DHT22;12318;51.262;7.066;2023-03-22T00:01:55;10.70;99.90
24162;DHT22;12318;51.262;7.066;2023-03-22T00:04:21;10.70;99.90
24162;DHT22;12318;51.262;7.066;2023-03-22T00:06:47;10.50;99.90
24162;DHT22;12318;51.262;7.066;2023-03-22T00:09:12;10.40;99.90
24162;DHT22;12318;51.262;7.066;2023-03-22T00:11:38;10.50;99.90
24162;DHT22;12318;51.262;7.066;2023-03-22T00:14:04;10.50;99.90
24162;DHT22;12318;51.262;7.066;2023-03-22T00:16:30;10.50;99.90
24162;DHT22;12318;51.262;7.066;2023-03-22T00:18:56;10.40;99.90
24162;DHT22;12318;51.262;7.066;2023-03-22T00:21:22;10.40;99.90
24162;DHT22;12318;51.262;7.066;2023-03-22T00:23:48;10.50;99.90
24162;DHT22;12318;51.262;7.066;2023-03-22T00:26:14;10.50;99.90
24162;DHT22;12318;51.262;7.066;2023-03-22T00:28:40;10.50;99.90
24162;DHT22;12318;51.262;7.066;2023-03-22T00:31:06;10.50;99.90
24162;DHT22;12318;51.262;7.066;2023-03-22T00:33:33;10.40;99.90
24162;DHT22;12318;51.262;7.066;2023-03-22T00:36:08;10.50;99.90
24162;DHT22;12318;51.262;7.066;2023-03-22T00:38:35;10.50;99.90
24162;DHT22;12318;51.262;7.066;2023-03-22T00:41:08;10.50;99.90
24162;DHT22;12318;51.262;7.066;2023-03-22T00:43:34;10.40;99.90
24162;DHT22;12318;51.262;7.066;2023-03-22T00:46:01;10.40;99.90
24162;DHT22;12318;51.262;7.066;2023-03-22T00:48:27;10.50;99.90
24162;DHT22;12318;51.262;7.066;2023-03-22T00:50:52;10.30;99.90
24162;DHT22;12318;51.262;7.066;2023-03-22T00:53:18;10.30;99.90
24162;DHT22;12318;51.262;7.066;2023-03-22T00:55:44;10.30;99.90
24162;DHT22;12318;51.262;7.066;2023-03-22T00:58:10;10.30;99.90
24162;DHT22;12318;51.262;7.066;2023-03-22T01:00:36;10.40;99.90
24162;DHT22;12318;51.262;7.066;2023-03-22T01:03:02;10.40;99.90
24162;DHT22;12318;51.262;7.066;2023-03-22T01:05:30;10.30;99.90
24162;DHT22;12318;51.262;7.066;2023-03-22T01:07:59;10.20;99.90
24162;DHT22;12318;51.262;7.066;2023-03-22T01:10:28;10.20;99.90
24162;DHT22;12318;51.262;7.066;2023-03-22T01:12:53;10.10;99.90
24162;DHT22;12318;51.262;7.066;2023-03-22T01:15:21;10.10;99.90
24162;DHT22;12318;51.262;7.066;2023-03-22T01:17:47;10.00;99.90
24162;DHT22;12318;51.262;7.066;2023-03-22T01:20:13;10.00;99.90
24162;DHT22;12318;51.262;7.066;2023-03-22T01:22:39;10.00;99.90
24162;DHT22;12318;51.262;7.066;2023-03-22T01:25:06;10.00;99.90
24162;DHT22;12318;51.262;7.066;2023-03-22T01:27:32;9.90;99.90
24162;DHT22;12318;51.262;7.066;2023-03-22T01:29:57;9.90;99.90
24162;DHT22;12318;51.262;7.066;2023-03-22T01:32:23;9.80;99.90
24162;DHT22;12318;51.262;7.066;2023-03-22T01:34:49;9.80;99.90
24162;DHT22;12318;51.262;7.066;2023-03-22T01:37:15;9.90;99.90
24162;DHT22;12318;51.262;7.066;2023-03-22T01:39:41;9.90;99.90
24162;DHT22;12318;51.262;7.066;2023-03-22T01:42:12;9.80;99.90
24162;DHT22;12318;51.262;7.066;2023-03-22T01:44:42;9.80;99.90
24162;DHT22;12318;51.262;7.066;2023-03-22T01:47:10;9.80;99.90
24162;DHT22;12318;51.262;7.066;2023-03-22T01:49:36;9.70;99.90
24162;DHT22;12318;51.262;7.066;2023-03-22T01:52:06;9.70;99.90
24162;DHT22;12318;51.262;7.066;2023-03-22T01:54:46;9.70;99.90
24162;DHT22;12318;51.262;7.066;2023-03-22T01:57:12;9.60;99.90
24162;DHT22;12318;51.262;7.066;2023-03-22T01:59:39;9.60;99.90
24162;DHT22;12318;51.262;7.066;2023-03-22T02:02:06;9.60;99.90
24162;DHT22;12318;51.262;7.066;2023-03-22T02:04:34;9.60;99.90
24162;DHT22;12318;51.262;7.066;2023-03-22T02:07:07;9.70;99.90
24162;DHT22;12318;51.262;7.066;2023-03-22T02:09:38;9.60;99.90
24162;DHT22;12318;51.262;7.066;2023-03-22T02:12:24;9.60;99.90
24162;DHT22;12318;51.262;7.066;2023-03-22T02:15:16;9.50;99.90
24162;DHT22;12318;51.262;7.066;2023-03-22T02:31:44;9.60;99.90
24162;DHT22;12318;51.262;7.066;2023-03-22T02:37:08;9.60;99.90
24162;DHT22;12318;51.262;7.066;2023-03-22T02:48:49;9.60;99.90
24162;DHT22;12318;51.262;7.066;2023-03-22T02:53:23;9.50;99.90
24162;DHT22;12318;51.262;7.066;2023-03-22T02:56:02;9.60;99.90
24162;DHT22;12318;51.262;7.066;2023-03-22T03:01:09;9.50;99.90
24162;DHT22;12318;51.262;7.066;2023-03-22T03:03:37;9.50;99.90
24162;DHT22;12318;51.262;7.066;2023-03-22T03:06:13;9.50;99.90
24162;DHT22;12318;51.262;7.066;2023-03-22T03:08:41;9.50;99.90
24162;DHT22;12318;51.262;7.066;2023-03-22T03:11:09;9.40;99.90
24162;DHT22;12318;51.262;7.066;2023-03-22T03:13:34;9.40;99.90
24162;DHT22;12318;51.262;7.066;2023-03-22T03:16:02;9.50;99.90
24162;DHT22;12318;51.262;7.066;2023-03-22T03:18:59;9.40;99.90
24162;DHT22;12318;51.262;7.066;2023-03-22T03:21:28;9.40;99.90
24162;DHT22;12318;51.262;7.066;2023-03-22T03:24:02;9.40;99.90
24162;DHT22;12318;51.262;7.066;2023-03-22T03:26:59;9.40;99.90
24162;DHT22;12318;51.262;7.066;2023-03-22T03:29:47;9.40;99.90
24162;DHT22;12318;51.262;7.066;2023-03-22T03:32:28;9.40;99.90
24162;DHT22;12318;51.262;7.066;2023-03-22T03:37:56;9.40;99.90
24162;DHT22;12318;51.262;7.066;2023-03-22T03:40:31;9.30;99.90
24162;DHT22;12318;51.262;7.066;2023-03-22T03:43:00;9.40;99.90
24162;DHT22;12318;51.262;7.066;2023-03-22T03:45:28;9.30;99.90
24162;DHT22;12318;51.262;7.066;2023-03-22T03:47:57;9.30;99.90
24162;DHT22;12318;51.262;7.066;2023-03-22T03:50:25;9.30;99.90
24162;DHT22;12318;51.262;7.066;2023-03-22T03:52:52;9.20;99.90
24162;DHT22;12318;51.262;7.066;2023-03-22T03:55:19;9.20;99.90
24162;DHT22;12318;51.262;7.066;2023-03-22T03:57:45;9.30;99.90
24162;DHT22;12318;51.262;7.066;2023-03-22T04:00:12;9.30;99.90
24162;DHT22;12318;51.262;7.066;2023-03-22T04:02:41;9.30;99.90
24162;DHT22;12318;51.262;7.066;2023-03-22T04:05:09;9.40;99.90
24162;DHT22;12318;51.262;7.066;2023-03-22T04:07:35;9.30;99.90
24162;DHT22;12318;51.262;7.066;2023-03-22T04:10:01;9.30;99.90
24162;DHT22;12318;51.262;7.066;2023-03-22T04:12:28;9.40;99.90
24162;DHT22;12318;51.262;7.066;2023-03-22T04:14:54;9.30;99.90
24162;DHT22;12318;51.262;7.066;2023-03-22T04:17:21;9.30;99.90
24162;DHT22;12318;51.262;7.066;2023-03-22T04:19:47;9.20;99.90
24162;DHT22;12318;51.262;7.066;2023-03-22T04:22:13;9.30;99.90
24162;DHT22;12318;51.262;7.066;2023-03-22T04:24:43;9.40;99.90
24162;DHT22;12318;51.262;7.066;2023-03-22T04:27:18;9.30;99.90
24162;DHT22;12318;51.262;7.066;2023-03-22T04:29:44;9.20;99.90
24162;DHT22;12318;51.262;7.066;2023-03-22T04:32:19;9.20;99.90
24162;DHT22;12318;51.262;7.066;2023-03-22T04:34:48;9.20;99.90
24162;DHT22;12318;51.262;7.066;2023-03-22T04:37:14;9.30;99.90
24162;DHT22;12318;51.262;7.066;2023-03-22T04:39:40;9.30;99.90
24162;DHT22;12318;51.262;7.066;2023-03-22T04:42:07;9.30;99.90
24162;DHT22;12318;51.262;7.066;2023-03-22T04:44:33;9.30;99.90
24162;DHT22;12318;51.262;7.066;2023-03-22T04:47:00;9.20;99.90
24162;DHT22;12318;51.262;7.066;2023-03-22T04:49:25;9.20;99.90
24162;DHT22;12318;51.262;7.066;2023-03-22T04:51:55;9.20;99.90
24162;DHT22;12318;51.262;7.066;2023-03-22T04:54:22;9.30;99.90
24162;DHT22;12318;51.262;7.066;2023-03-22T04:56:48;9.30;99.90
24162;DHT22;12318;51.262;7.066;2023-03-22T04:59:14;9.30;99.90
24162;DHT22;12318;51.262;7.066;2023-03-22T05:01:42;9.20;99.90
24162;DHT22;12318;51.262;7.066;2023-03-22T05:04:08;9.20;99.90
24162;DHT22;12318;51.262;7.066;2023-03-22T05:06:34;9.20;99.90
24162;DHT22;12318;51.262;7.066;2023-03-22T05:09:00;9.20;99.90
24162;DHT22;12318;51.262;7.066;2023-03-22T05:11:26;9.30;99.90
24162;DHT22;12318;51.262;7.066;2023-03-22T05:13:56;9.30;99.90
24162;DHT22;12318;51.262;7.066;2023-03-22T05:16:23;9.30;99.90
24162;DHT22;12318;51.262;7.066;2023-03-22T05:18:50;9.40;99.90
24162;DHT22;12318;51.262;7.066;2023-03-22T05:21:20;9.40;99.90
24162;DHT22;12318;51.262;7.066;2023-03-22T05:23:57;9.50;99.90
24162;DHT22;12318;51.262;7.066;2023-03-22T05:26:25;9.50;99.90
24162;DHT22;12318;51.262;7.066;2023-03-22T05:28:57;9.50;99.90
24162;DHT22;12318;51.262;7.066;2023-03-22T05:31:23;9.50;99.90
24162;DHT22;12318;51.262;7.066;2023-03-22T05:33:52;9.60;99.90
24162;DHT22;12318;51.262;7.066;2023-03-22T05:36:19;9.60;99.90
24162;DHT22;12318;51.262;7.066;2023-03-22T05:38:46;9.60;99.90
24162;DHT22;12318;51.262;7.066;2023-03-22T05:41:12;9.60;99.90
24162;DHT22;12318;51.262;7.066;2023-03-22T05:43:38;9.70;99.90
24162;DHT22;12318;51.262;7.066;2023-03-22T05:46:09;9.70;99.90
24162;DHT22;12318;51.262;7.066;2023-03-22T05:49:09;9.70;99.90
24162;DHT22;12318;51.262;7.066;2023-03-22T05:51:58;9.70;99.90
24162;DHT22;12318;51.262;7.066;2023-03-22T05:54:24;9.70;99.90
24162;DHT22;12318;51.262;7.066;2023-03-22T05:56:49;9.80;99.90
24162;DHT22;12318;51.262;7.066;2023-03-22T05:59:16;9.80;99.90
24162;DHT22;12318;51.262;7.066;2023-03-22T06:01:41;9.80;99.90
24162;DHT22;12318;51.262;7.066;2023-03-22T06:04:07;9.90;99.90
24162;DHT22;12318;51.262;7.066;2023-03-22T06:06:33;9.90;99.90
24162;DHT22;12318;51.262;7.066;2023-03-22T06:08:59;10.00;99.90
24162;DHT22;12318;51.262;7.066;2023-03-22T06:11:25;10.00;99.90
24162;DHT22;12318;51.262;7.066;2023-03-22T06:13:50;10.00;99.90
24162;DHT22;12318;51.262;7.066;2023-03-22T06:16:17;10.10;99.90
24162;DHT22;12318;51.262;7.066;2023-03-22T06:18:46;10.10;99.90
24162;DHT22;12318;51.262;7.066;2023-03-22T06:21:11;10.10;99.90
24162;DHT22;12318;51.262;7.066;2023-03-22T06:23:37;10.10;99.90
24162;DHT22;12318;51.262;7.066;2023-03-22T06:26:03;10.20;99.90
24162;DHT22;12318;51.262;7.066;2023-03-22T06:28:29;10.20;99.90
24162;DHT22;12318;51.262;7.066;2023-03-22T06:30:55;10.10;99.90
24162;DHT22;12318;51.262;7.066;2023-03-22T06:33:21;10.20;99.90
24162;DHT22;12318;51.262;7.066;2023-03-22T06:35:47;10.10;99.90
24162;DHT22;12318;51.262;7.066;2023-03-22T06:38:12;10.10;99.90
24162;DHT22;12318;51.262;7.066;2023-03-22T06:40:38;10.20;99.90
24162;DHT22;12318;51.262;7.066;2023-03-22T06:43:04;10.20;99.90
24162;DHT22;12318;51.262;7.066;2023-03-22T06:45:30;10.10;99.90
24162;DHT22;12318;51.262;7.066;2023-03-22T06:47:58;10.20;99.90
24162;DHT22;12318;51.262;7.066;2023-03-22T06:50:25;10.20;99.90
24162;DHT22;12318;51.262;7.066;2023-03-22T06:52:51;10.20;99.90
24162;DHT22;12318;51.262;7.066;2023-03-22T06:55:17;10.20;99.90
24162;DHT22;12318;51.262;7.066;2023-03-22T06:57:43;10.20;99.90
24162;DHT22;12318;51.262;7.066;2023-03-22T07:00:09;10.30;99.90
24162;DHT22;12318;51.262;7.066;2023-03-22T07:02:35;10.40;99.90
24162;DHT22;12318;51.262;7.066;2023-03-22T07:05:01;10.40;99.90
24162;DHT22;12318;51.262;7.066;2023-03-22T07:07:27;10.60;99.90
24162;DHT22;12318;51.262;7.066;2023-03-22T07:10:10;10.60;99.90
24162;DHT22;12318;51.262;7.066;2023-03-22T07:12:41;10.60;99.90
24162;DHT22;12318;51.262;7.066;2023-03-22T07:18:33;10.70;99.90
24162;DHT22;12318;51.262;7.066;2023-03-22T07:24:16;10.60;99.90
24162;DHT22;12318;51.262;7.066;2023-03-22T07:26:48;10.60;99.90
24162;DHT22;12318;51.262;7.066;2023-03-22T07:29:37;10.70;99.90
24162;DHT22;12318;51.262;7.066;2023-03-22T07:32:17;10.70;99.90
24162;DHT22;12318;51.262;7.066;2023-03-22T07:34:57;10.90;99.90
24162;DHT22;12318;51.262;7.066;2023-03-22T07:37:27;10.90;99.90
24162;DHT22;12318;51.262;7.066;2023-03-22T07:39:53;10.90;99.90
24162;DHT22;12318;51.262;7.066;2023-03-22T07:42:18;11.10;99.90
24162;DHT22;12318;51.262;7.066;2023-03-22T07:44:45;11.20;99.90
24162;DHT22;12318;51.262;7.066;2023-03-22T07:47:14;11.30;99.90
24162;DHT22;12318;51.262;7.066;2023-03-22T07:49:40;11.50;99.90
24162;DHT22;12318;51.262;7.066;2023-03-22T07:52:05;11.60;99.90
24162;DHT22;12318;51.262;7.066;2023-03-22T07:54:32;11.70;99.90
24162;DHT22;12318;51.262;7.066;2023-03-22T07:56:58;11.80;99.90
24162;DHT22;12318;51.262;7.066;2023-03-22T07:59:24;11.70;99.90
24162;DHT22;12318;51.262;7.066;2023-03-22T08:01:49;11.80;99.90
24162;DHT22;12318;51.262;7.066;2023-03-22T08:04:16;11.90;99.90
24162;DHT22;12318;51.262;7.066;2023-03-22T08:06:41;11.90;99.90
24162;DHT22;12318;51.262;7.066;2023-03-22T08:09:08;11.80;99.90
24162;DHT22;12318;51.262;7.066;2023-03-22T08:11:34;11.60;99.90
24162;DHT22;12318;51.262;7.066;2023-03-22T08:14:00;11.70;99.90
24162;DHT22;12318;51.262;7.066;2023-03-22T08:16:26;11.70;99.90
24162;DHT22;12318;51.262;7.066;2023-03-22T08:18:52;11.70;99.90
24162;DHT22;12318;51.262;7.066;2023-03-22T08:21:18;11.70;99.90
24162;DHT22;12318;51.262;7.066;2023-03-22T08:23:43;11.80;99.90
24162;DHT22;12318;51.262;7.066;2023-03-22T08:26:10;11.80;99.90
24162;DHT22;12318;51.262;7.066;2023-03-22T08:28:36;11.90;99.90
24162;DHT22;12318;51.262;7.066;2023-03-22T08:31:12;11.90;99.90
24162;DHT22;12318;51.262;7.066;2023-03-22T08:33:38;11.70;99.90
24162;DHT22;12318;51.262;7.066;2023-03-22T08:36:07;11.70;99.90
24162;DHT22;12318;51.262;7.066;2023-03-22T08:38:33;11.80;99.90
24162;DHT22;12318;51.262;7.066;2023-03-22T08:40:58;11.80;99.90
24162;DHT22;12318;51.262;7.066;2023-03-22T08:43:24;11.90;99.90
24162;DHT22;12318;51.262;7.066;2023-03-22T08:45:50;11.80;99.90
24162;DHT22;12318;51.262;7.066;2023-03-22T08:48:16;11.90;99.90
24162;DHT22;12318;51.262;7.066;2023-03-22T08:50:41;12.00;99.90
24162;DHT22;12318;51.262;7.066;2023-03-22T08:53:07;12.10;99.90
24162;DHT22;12318;51.262;7.066;2023-03-22T08:55:35;12.20;99.90
24162;DHT22;12318;51.262;7.066;2023-03-22T08:58:09;12.10;99.90
24162;DHT22;12318;51.262;7.066;2023-03-22T09:00:48;12.20;99.90
24162;DHT22;12318;51.262;7.066;2023-03-22T09:03:17;12.30;99.90
24162;DHT22;12318;51.262;7.066;2023-03-22T09:05:45;12.30;99.90
24162;DHT22;12318;51.262;7.066;2023-03-22T09:08:13;12.30;99.90
24162;DHT22;12318;51.262;7.066;2023-03-22T09:10:41;12.20;99.90
24162;DHT22;12318;51.262;7.066;2023-03-22T09:13:26;12.30;99.90
24162;DHT22;12318;51.262;7.066;2023-03-22T09:16:07;12.20;99.90
24162;DHT22;12318;51.262;7.066;2023-03-22T09:18:57;12.20;99.90
24162;DHT22;12318;51.262;7.066;2023-03-22T09:21:30;12.30;99.90
24162;DHT22;12318;51.262;7.066;2023-03-22T09:23:56;12.30;99.90
24162;DHT22;12318;51.262;7.066;2023-03-22T09:26:27;12.20;99.90
24162;DHT22;12318;51.262;7.066;2023-03-22T09:29:02;12.40;99.90
24162;DHT22;12318;51.262;7.066;2023-03-22T09:31:52;12.30;99.90
24162;DHT22;12318;51.262;7.066;2023-03-22T09:34:21;12.30;99.90
24162;DHT22;12318;51.262;7.066;2023-03-22T09:36:54;12.60;99.90
24162;DHT22;12318;51.262;7.066;2023-03-22T09:39:36;12.70;98.50
24162;DHT22;12318;51.262;7.066;2023-03-22T09:42:06;12.70;98.00
24162;DHT22;12318;51.262;7.066;2023-03-22T09:44:33;12.80;98.50
24162;DHT22;12318;51.262;7.066;2023-03-22T09:47:00;13.20;98.70
24162;DHT22;12318;51.262;7.066;2023-03-22T09:49:44;13.50;98.60
24162;DHT22;12318;51.262;7.066;2023-03-22T09:52:16;13.60;97.80
24162;DHT22;12318;51.262;7.066;2023-03-22T09:54:44;13.30;97.70
24162;DHT22;12318;51.262;7.066;2023-03-22T10:10:41;12.70;96.60
24162;DHT22;12318;51.262;7.066;2023-03-22T10:13:35;12.80;96.50
24162;DHT22;12318;51.262;7.066;2023-03-22T10:16:06;13.10;96.20
24162;DHT22;12318;51.262;7.066;2023-03-22T10:18:42;13.10;94.80
24162;DHT22;12318;51.262;7.066;2023-03-22T10:21:17;13.30;94.60
24162;DHT22;12318;51.262;7.066;2023-03-22T10:24:40;13.30;94.10
24162;DHT22;12318;51.262;7.066;2023-03-22T10:26:45;13.50;94.00
24162;DHT22;12318;51.262;7.066;2023-03-22T10:32:44;13.40;94.40
24162;DHT22;12318;51.262;7.066;2023-03-22T10:35:14;13.90;94.10
24162;DHT22;12318;51.262;7.066;2023-03-22T10:37:42;13.80;92.90
24162;DHT22;12318;51.262;7.066;2023-03-22T10:40:18;13.50;92.80
24162;DHT22;12318;51.262;7.066;2023-03-22T10:42:52;13.60;93.50
24162;DHT22;12318;51.262;7.066;2023-03-22T10:45:19;13.70;92.70
24162;DHT22;12318;51.262;7.066;2023-03-22T10:50:53;14.00;92.50
24162;DHT22;12318;51.262;7.066;2023-03-22T10:53:36;13.90;92.40
24162;DHT22;12318;51.262;7.066;2023-03-22T10:56:03;13.80;92.20
24162;DHT22;12318;51.262;7.066;2023-03-22T10:58:31;13.80;92.50
24162;DHT22;12318;51.262;7.066;2023-03-22T11:01:03;13.90;91.40
24162;DHT22;12318;51.262;7.066;2023-03-22T11:03:41;13.60;90.40
24162;DHT22;12318;51.262;7.066;2023-03-22T11:08:49;13.80;91.30
24162;DHT22;12318;51.262;7.066;2023-03-22T11:19:49;13.70;90.80
24162;DHT22;12318;51.262;7.066;2023-03-22T11:24:46;13.90;90.80
24162;DHT22;12318;51.262;7.066;2023-03-22T11:27:29;13.80;91.30
24162;DHT22;12318;51.262;7.066;2023-03-22T11:30:16;14.10;91.10
24162;DHT22;12318;51.262;7.066;2023-03-22T11:32:44;14.10;90.60
24162;DHT22;12318;51.262;7.066;2023-03-22T11:35:12;13.70;90.80
24162;DHT22;12318;51.262;7.066;2023-03-22T11:37:43;13.60;90.80
24162;DHT22;12318;51.262;7.066;2023-03-22T11:40:14;13.60;91.50
24162;DHT22;12318;51.262;7.066;2023-03-22T11:42:41;13.40;91.60
24162;DHT22;12318;51.262;7.066;2023-03-22T11:45:17;13.30;91.60
24162;DHT22;12318;51.262;7.066;2023-03-22T11:47:46;13.10;91.90
24162;DHT22;12318;51.262;7.066;2023-03-22T11:50:29;13.00;92.20
24162;DHT22;12318;51.262;7.066;2023-03-22T11:52:56;13.10;92.10
24162;DHT22;12318;51.262;7.066;2023-03-22T11:55:23;13.00;92.40
24162;DHT22;12318;51.262;7.066;2023-03-22T11:57:49;12.90;92.10
24162;DHT22;12318;51.262;7.066;2023-03-22T12:00:46;13.00;93.10
24162;DHT22;12318;51.262;7.066;2023-03-22T12:03:20;12.90;93.10
24162;DHT22;12318;51.262;7.066;2023-03-22T12:05:52;12.90;92.90
24162;DHT22;12318;51.262;7.066;2023-03-22T12:08:44;13.00;92.60
24162;DHT22;12318;51.262;7.066;2023-03-22T12:11:15;13.20;93.00
24162;DHT22;12318;51.262;7.066;2023-03-22T12:17:57;13.50;92.80
24162;DHT22;12318;51.262;7.066;2023-03-22T12:22:39;13.40;91.90
24162;DHT22;12318;51.262;7.066;2023-03-22T12:25:48;13.40;92.00
24162;DHT22;12318;51.262;7.066;2023-03-22T12:31:16;13.10;91.50
24162;DHT22;12318;51.262;7.066;2023-03-22T12:33:49;13.10;90.70
24162;DHT22;12318;51.262;7.066;2023-03-22T12:36:28;12.90;91.00
24162;DHT22;12318;51.262;7.066;2023-03-22T12:39:11;13.10;90.80
24162;DHT22;12318;51.262;7.066;2023-03-22T12:41:47;13.10;90.40
24162;DHT22;12318;51.262;7.066;2023-03-22T12:44:35;13.10;90.40
24162;DHT22;12318;51.262;7.066;2023-03-22T12:47:16;13.00;90.00
24162;DHT22;12318;51.262;7.066;2023-03-22T12:49:55;12.90;90.40
24162;DHT22;12318;51.262;7.066;2023-03-22T12:55:49;12.90;90.90
24162;DHT22;12318;51.262;7.066;2023-03-22T12:58:11;12.80;90.90
24162;DHT22;12318;51.262;7.066;2023-03-22T13:00:42;12.80;91.20
24162;DHT22;12318;51.262;7.066;2023-03-22T13:03:48;12.90;91.60
24162;DHT22;12318;51.262;7.066;2023-03-22T13:09:14;12.70;93.50
24162;DHT22;12318;51.262;7.066;2023-03-22T13:15:36;12.60;95.40
24162;DHT22;12318;51.262;7.066;2023-03-22T13:21:32;12.20;97.10
24162;DHT22;12318;51.262;7.066;2023-03-22T13:26:51;12.10;97.60
24162;DHT22;12318;51.262;7.066;2023-03-22T13:32:02;12.20;97.70
24162;DHT22;12318;51.262;7.066;2023-03-22T13:35:13;12.10;97.50
24162;DHT22;12318;51.262;7.066;2023-03-22T13:37:47;12.10;97.20
24162;DHT22;12318;51.262;7.066;2023-03-22T13:40:48;12.10;96.60
24162;DHT22;12318;51.262;7.066;2023-03-22T13:52:18;12.30;95.60
24162;DHT22;12318;51.262;7.066;2023-03-22T13:55:01;12.20;95.50
24162;DHT22;12318;51.262;7.066;2023-03-22T13:58:00;12.20;95.80
24162;DHT22;12318;51.262;7.066;2023-03-22T14:01:00;12.30;95.90
24162;DHT22;12318;51.262;7.066;2023-03-22T14:03:32;12.40;96.30
24162;DHT22;12318;51.262;7.066;2023-03-22T14:09:12;12.30;95.00
24162;DHT22;12318;51.262;7.066;2023-03-22T14:15:00;12.40;95.40
24162;DHT22;12318;51.262;7.066;2023-03-22T14:17:34;12.60;94.90
24162;DHT22;12318;51.262;7.066;2023-03-22T14:20:14;12.60;95.10
24162;DHT22;12318;51.262;7.066;2023-03-22T14:22:57;12.50;94.70
24162;DHT22;12318;51.262;7.066;2023-03-22T14:25:30;12.50;95.30
24162;DHT22;12318;51.262;7.066;2023-03-22T14:27:57;12.40;95.20
24162;DHT22;12318;51.262;7.066;2023-03-22T14:33:04;12.40;95.30
24162;DHT22;12318;51.262;7.066;2023-03-22T14:36:04;12.40;95.60
24162;DHT22;12318;51.262;7.066;2023-03-22T14:38:35;12.50;95.50
24162;DHT22;12318;51.262;7.066;2023-03-22T14:41:19;12.50;95.60
24162;DHT22;12318;51.262;7.066;2023-03-22T14:43:55;12.50;95.80
24162;DHT22;12318;51.262;7.066;2023-03-22T14:46:31;12.40;95.90
24162;DHT22;12318;51.262;7.066;2023-03-22T14:49:00;12.40;95.90
24162;DHT22;12318;51.262;7.066;2023-03-22T14:51:38;12.40;96.50
24162;DHT22;12318;51.262;7.066;2023-03-22T14:54:12;12.40;96.40
24162;DHT22;12318;51.262;7.066;2023-03-22T14:56:41;12.30;96.90
24162;DHT22;12318;51.262;7.066;2023-03-22T14:59:14;12.30;97.30
24162;DHT22;12318;51.262;7.066;2023-03-22T15:02:15;12.30;97.40
24162;DHT22;12318;51.262;7.066;2023-03-22T15:04:44;12.40;97.40
24162;DHT22;12318;51.262;7.066;2023-03-22T15:07:16;12.30;97.60
24162;DHT22;12318;51.262;7.066;2023-03-22T15:10:11;12.30;97.60
24162;DHT22;12318;51.262;7.066;2023-03-22T15:12:53;12.40;97.60
24162;DHT22;12318;51.262;7.066;2023-03-22T15:15:27;12.40;97.60
24162;DHT22;12318;51.262;7.066;2023-03-22T15:18:02;12.40;97.70
24162;DHT22;12318;51.262;7.066;2023-03-22T15:20:33;12.30;97.80
24162;DHT22;12318;51.262;7.066;2023-03-22T15:25:38;12.50;97.60
24162;DHT22;12318;51.262;7.066;2023-03-22T15:28:15;12.50;97.10
24162;DHT22;12318;51.262;7.066;2023-03-22T15:30:47;12.50;96.70
24162;DHT22;12318;51.262;7.066;2023-03-22T15:33:24;12.40;96.90
24162;DHT22;12318;51.262;7.066;2023-03-22T15:35:57;12.40;97.30
24162;DHT22;12318;51.262;7.066;2023-03-22T15:38:39;12.30;96.70
24162;DHT22;12318;51.262;7.066;2023-03-22T15:41:33;12.40;96.70
24162;DHT22;12318;51.262;7.066;2023-03-22T15:44:18;12.40;96.60
24162;DHT22;12318;51.262;7.066;2023-03-22T15:49:39;12.40;96.30
24162;DHT22;12318;51.262;7.066;2023-03-22T15:52:17;12.50;96.30
24162;DHT22;12318;51.262;7.066;2023-03-22T15:55:00;12.50;96.10
24162;DHT22;12318;51.262;7.066;2023-03-22T15:57:51;12.40;96.20
24162;DHT22;12318;51.262;7.066;2023-03-22T16:00:36;12.50;96.30
24162;DHT22;12318;51.262;7.066;2023-03-22T16:05:42;12.40;96.40
24162;DHT22;12318;51.262;7.066;2023-03-22T16:08:13;12.60;96.40
24162;DHT22;12318;51.262;7.066;2023-03-22T16:10:46;12.50;96.20
24162;DHT22;12318;51.262;7.066;2023-03-22T16:13:20;12.50;96.40
24162;DHT22;12318;51.262;7.066;2023-03-22T16:15:46;12.50;96.30
24162;DHT22;12318;51.262;7.066;2023-03-22T16:18:19;12.40;96.20
24162;DHT22;12318;51.262;7.066;2023-03-22T16:20:51;12.50;96.50
24162;DHT22;12318;51.262;7.066;2023-03-22T16:23:22;12.50;96.10
24162;DHT22;12318;51.262;7.066;2023-03-22T16:25:48;12.60;96.20
24162;DHT22;12318;51.262;7.066;2023-03-22T16:28:14;12.60;96.30
24162;DHT22;12318;51.262;7.066;2023-03-22T16:30:41;12.60;96.00
24162;DHT22;12318;51.262;7.066;2023-03-22T16:33:15;12.60;96.10
24162;DHT22;12318;51.262;7.066;2023-03-22T16:35:42;12.70;96.10
24162;DHT22;12318;51.262;7.066;2023-03-22T16:38:16;12.60;96.00
24162;DHT22;12318;51.262;7.066;2023-03-22T16:40:48;12.70;96.20
24162;DHT22;12318;51.262;7.066;2023-03-22T16:43:14;12.60;96.40
24162;DHT22;12318;51.262;7.066;2023-03-22T16:45:40;12.60;96.40
24162;DHT22;12318;51.262;7.066;2023-03-22T16:48:08;12.60;96.20
24162;DHT22;12318;51.262;7.066;2023-03-22T16:50:37;12.50;96.30
24162;DHT22;12318;51.262;7.066;2023-03-22T16:53:03;12.50;96.50
24162;DHT22;12318;51.262;7.066;2023-03-22T16:55:30;12.60;96.30
24162;DHT22;12318;51.262;7.066;2023-03-22T16:57:58;12.70;96.50
24162;DHT22;12318;51.262;7.066;2023-03-22T17:00:24;12.60;96.40
24162;DHT22;12318;51.262;7.066;2023-03-22T17:02:55;12.70;96.20
24162;DHT22;12318;51.262;7.066;2023-03-22T17:05:23;12.80;96.20
24162;DHT22;12318;51.262;7.066;2023-03-22T17:07:52;12.80;96.10
24162;DHT22;12318;51.262;7.066;2023-03-22T17:10:19;12.70;96.20
24162;DHT22;12318;51.262;7.066;2023-03-22T17:12:45;12.60;96.40
24162;DHT22;12318;51.262;7.066;2023-03-22T17:15:36;12.60;96.60
24162;DHT22;12318;51.262;7.066;2023-03-22T17:18:06;12.60;96.70
24162;DHT22;12318;51.262;7.066;2023-03-22T17:20:36;12.60;96.80
24162;DHT22;12318;51.262;7.066;2023-03-22T17:23:04;12.70;96.70
24162;DHT22;12318;51.262;7.066;2023-03-22T17:25:32;12.70;96.40
24162;DHT22;12318;51.262;7.066;2023-03-22T17:28:00;12.60;96.50
24162;DHT22;12318;51.262;7.066;2023-03-22T17:30:28;12.60;96.60
24162;DHT22;12318;51.262;7.066;2023-03-22T17:32:55;12.60;96.70
24162;DHT22;12318;51.262;7.066;2023-03-22T17:35:23;12.60;96.70
24162;DHT22;12318;51.262;7.066;2023-03-22T17:37:49;12.60;96.80
24162;DHT22;12318;51.262;7.066;2023-03-22T17:40:17;12.60;97.10
24162;DHT22;12318;51.262;7.066;2023-03-22T17:42:44;12.60;97.00
24162;DHT22;12318;51.262;7.066;2023-03-22T17:45:25;12.70;96.80
24162;DHT22;12318;51.262;7.066;2023-03-22T17:47:51;12.70;96.80
24162;DHT22;12318;51.262;7.066;2023-03-22T17:50:18;12.70;96.60
24162;DHT22;12318;51.262;7.066;2023-03-22T17:52:44;12.70;96.60
24162;DHT22;12318;51.262;7.066;2023-03-22T17:55:15;12.70;96.90
24162;DHT22;12318;51.262;7.066;2023-03-22T17:57:41;12.70;96.80
24162;DHT22;12318;51.262;7.066;2023-03-22T18:00:10;12.70;96.70
24162;DHT22;12318;51.262;7.066;2023-03-22T18:02:36;12.70;96.80
24162;DHT22;12318;51.262;7.066;2023-03-22T18:05:02;12.70;96.80
24162;DHT22;12318;51.262;7.066;2023-03-22T18:07:28;12.70;96.90
24162;DHT22;12318;51.262;7.066;2023-03-22T18:09:54;12.60;97.10